createdAt,value
2023-04-08T00:01:03.836Z,5.68
2023-04-08T00:03:32.715Z,5.50
2023-04-08T00:06:02.978Z,5.08
2023-04-08T00:08:31.202Z,5.19
2023-04-08T00:10:59.555Z,5.10
2023-04-08T00:13:27.480Z,5.56
2023-04-08T00:15:55.498Z,5.45
2023-04-08T00:18:23.783Z,5.04
2023-04-08T00:20:51.649Z,5.08
2023-04-08T00:23:21.575Z,5.45
2023-04-08T00:25:49.923Z,5.44
2023-04-08T00:28:17.838Z,5.04
2023-04-08T00:30:45.992Z,5.07
2023-04-08T00:33:14.280Z,4.74
2023-04-08T00:35:42.214Z,5.09
2023-04-08T00:38:10.593Z,5.35
2023-04-08T00:40:39.170Z,5.60
2023-04-08T00:43:07.055Z,4.95
2023-04-08T00:45:35.113Z,5.25
2023-04-08T00:48:04.789Z,5.09
2023-04-08T00:50:32.839Z,4.94
2023-04-08T00:53:00.688Z,4.85
2023-04-08T00:55:29.160Z,5.21
2023-04-08T00:57:57.416Z,5.48
2023-04-08T01:00:26.382Z,5.55
2023-04-08T01:03:08.719Z,5.31
2023-04-08T01:05:44.415Z,5.22
2023-04-08T01:08:12.923Z,5.22
2023-04-08T01:10:43.153Z,5.04
2023-04-08T01:13:15.040Z,5.10
2023-04-08T01:15:44.760Z,4.91
2023-04-08T01:18:14.278Z,5.24
2023-04-08T01:20:43.617Z,5.26
2023-04-08T01:23:31.851Z,5.23
2023-04-08T01:25:59.706Z,4.75
2023-04-08T01:28:30.012Z,4.80
2023-04-08T01:31:01.253Z,4.78
2023-04-08T01:33:29.976Z,4.86
2023-04-08T01:35:58.844Z,5.05
2023-04-08T01:38:27.494Z,5.42
2023-04-08T01:40:56.148Z,5.31
2023-04-08T01:43:25.096Z,5.17
2023-04-08T01:45:58.469Z,5.23
2023-04-08T01:48:27.534Z,5.21
2023-04-08T01:50:56.499Z,5.00
2023-04-08T01:53:24.477Z,4.96
2023-04-08T01:55:58.733Z,5.21
2023-04-08T01:58:30.065Z,5.20
2023-04-08T02:00:59.390Z,5.01
2023-04-08T02:03:29.136Z,5.05
2023-04-08T02:05:57.261Z,5.05
2023-04-08T02:08:25.165Z,5.06
2023-04-08T02:10:54.892Z,4.85
2023-04-08T02:13:22.844Z,5.09
2023-04-08T02:15:58.258Z,4.68
2023-04-08T02:18:28.397Z,4.59
2023-04-08T02:21:15.080Z,5.09
2023-04-08T02:23:47.375Z,5.04
2023-04-08T02:26:17.196Z,5.28
2023-04-08T02:28:46.310Z,5.10
2023-04-08T02:31:15.161Z,5.05
2023-04-08T02:33:45.962Z,5.27
2023-04-08T02:36:14.898Z,4.82
2023-04-08T02:38:42.818Z,4.82
2023-04-08T02:41:11.162Z,4.75
2023-04-08T02:43:39.072Z,5.23
2023-04-08T02:46:07.585Z,4.73
2023-04-08T02:48:37.122Z,4.68
2023-04-08T02:51:04.993Z,4.64
2023-04-08T02:53:32.964Z,5.16
2023-04-08T02:56:01.516Z,4.79
2023-04-08T02:58:29.444Z,4.82
2023-04-08T03:00:57.439Z,4.97
2023-04-08T03:03:29.861Z,4.66
2023-04-08T03:05:58.800Z,4.62
2023-04-08T03:08:27.118Z,5.17
2023-04-08T03:10:55.029Z,4.75
2023-04-08T03:13:22.993Z,4.80
2023-04-08T03:15:51.300Z,4.68
2023-04-08T03:18:19.221Z,4.90
2023-04-08T03:20:47.453Z,5.03
2023-04-08T03:23:16.618Z,4.90
2023-04-08T03:25:44.661Z,4.77
2023-04-08T03:28:12.626Z,4.92
2023-04-08T03:30:41.179Z,4.65
2023-04-08T03:33:09.357Z,5.07
2023-04-08T03:35:37.796Z,4.71
2023-04-08T03:38:06.433Z,4.56
2023-04-08T03:40:34.406Z,4.81
2023-04-08T03:43:02.286Z,4.74
2023-04-08T03:45:30.677Z,4.88
2023-04-08T03:47:58.626Z,4.60
2023-04-08T03:50:26.717Z,4.64
2023-04-08T03:52:54.917Z,4.60
2023-04-08T03:55:22.864Z,4.77
2023-04-08T03:57:50.878Z,4.91
2023-04-08T04:00:19.094Z,4.54
2023-04-08T04:02:47.540Z,4.71
2023-04-08T04:05:15.703Z,4.55
2023-04-08T04:07:43.648Z,4.85
2023-04-08T04:10:12.226Z,4.68
2023-04-08T04:12:40.158Z,5.00
2023-04-08T04:15:08.502Z,4.96
2023-04-08T04:17:36.746Z,5.18
2023-04-08T04:20:06.646Z,5.27
2023-04-08T04:22:34.489Z,4.89
2023-04-08T04:25:02.806Z,4.77
2023-04-08T04:27:30.851Z,5.43
2023-04-08T04:29:58.743Z,5.11
2023-04-08T04:32:27.189Z,4.73
2023-04-08T04:34:55.214Z,4.76
2023-04-08T04:37:23.415Z,4.86
2023-04-08T04:39:51.675Z,4.99
2023-04-08T04:42:19.638Z,4.52
2023-04-08T04:44:47.953Z,4.99
2023-04-08T04:47:16.652Z,4.84
2023-04-08T04:49:45.903Z,5.10
2023-04-08T04:52:13.859Z,4.86
2023-04-08T04:54:42.071Z,4.93
2023-04-08T04:57:11.491Z,5.17
2023-04-08T04:59:39.351Z,5.13
2023-04-08T05:02:07.705Z,4.86
2023-04-08T05:04:36.332Z,4.94
2023-04-08T05:07:04.506Z,4.85
2023-04-08T05:09:32.761Z,4.79
2023-04-08T05:12:00.678Z,4.77
2023-04-08T05:14:31.885Z,5.70
2023-04-08T05:17:00.158Z,4.92
2023-04-08T05:19:28.018Z,5.19
2023-04-08T05:21:56.142Z,5.15
2023-04-08T05:24:24.366Z,4.80
2023-04-08T05:26:53.505Z,5.13
2023-04-08T05:29:22.133Z,4.76
2023-04-08T05:31:50.743Z,4.91
2023-04-08T05:34:23.308Z,4.98
2023-04-08T05:36:54.670Z,4.92
2023-04-08T05:39:22.501Z,4.94
2023-04-08T05:41:50.668Z,4.89
2023-04-08T05:44:19.137Z,4.89
2023-04-08T05:46:47.191Z,4.99
2023-04-08T05:49:15.953Z,5.12
2023-04-08T05:51:44.303Z,4.87
2023-04-08T05:54:12.285Z,4.81
2023-04-08T05:56:40.525Z,4.85
2023-04-08T05:59:08.741Z,4.57
2023-04-08T06:01:36.798Z,4.88
2023-04-08T06:04:05.621Z,5.39
2023-04-08T06:06:33.669Z,5.44
2023-04-08T06:09:01.774Z,5.04
2023-04-08T06:11:30.143Z,5.37
2023-04-08T06:13:58.101Z,5.06
2023-04-08T06:16:26.201Z,5.34
2023-04-08T06:18:54.742Z,5.56
2023-04-08T06:21:22.607Z,4.91
2023-04-08T06:23:50.441Z,5.13
2023-04-08T06:26:18.719Z,5.26
2023-04-08T06:28:46.628Z,4.88
2023-04-08T06:31:14.526Z,5.19
2023-04-08T06:33:42.833Z,5.36
2023-04-08T06:36:11.467Z,5.15
2023-04-08T06:38:39.609Z,5.08
2023-04-08T06:41:08.383Z,5.07
2023-04-08T06:43:38.015Z,5.27
2023-04-08T06:46:06.461Z,5.01
2023-04-08T06:48:34.848Z,5.29
2023-04-08T06:51:03.047Z,5.57
2023-04-08T06:53:33.008Z,5.75
2023-04-08T06:56:01.521Z,5.54
2023-04-08T06:58:30.194Z,5.71
2023-04-08T07:01:00.130Z,5.49
2023-04-08T07:03:30.007Z,6.14
2023-04-08T07:05:57.946Z,5.66
2023-04-08T07:08:25.930Z,5.48
2023-04-08T07:10:54.296Z,5.45
2023-04-08T07:13:22.210Z,5.10
2023-04-08T07:15:50.111Z,5.57
2023-04-08T07:18:18.857Z,5.51
2023-04-08T07:20:51.445Z,4.83
2023-04-08T07:23:20.358Z,5.57
2023-04-08T07:25:48.470Z,5.39
2023-04-08T07:28:16.484Z,5.14
2023-04-08T07:30:44.824Z,5.09
2023-04-08T07:33:12.872Z,5.39
2023-04-08T07:35:42.256Z,5.53
2023-04-08T07:38:11.792Z,5.47
2023-04-08T07:40:39.753Z,5.51
2023-04-08T07:43:09.326Z,5.20
2023-04-08T07:45:37.564Z,5.62
2023-04-08T07:48:05.695Z,5.43
2023-04-08T07:50:33.677Z,5.70
2023-04-08T07:53:02.069Z,5.80
2023-04-08T07:55:37.496Z,5.20
2023-04-08T07:58:07.941Z,4.70
2023-04-08T08:00:35.814Z,5.24
2023-04-08T08:03:04.176Z,4.99
2023-04-08T08:05:32.122Z,5.36
2023-04-08T08:08:00.016Z,5.42
2023-04-08T08:10:28.377Z,5.19
2023-04-08T08:12:56.486Z,4.98
2023-04-08T08:15:24.404Z,5.76
2023-04-08T08:17:52.744Z,5.50
2023-04-08T08:20:20.922Z,5.38
2023-04-08T08:22:57.236Z,5.93
2023-04-08T08:25:26.429Z,5.92
2023-04-08T08:27:55.649Z,5.42
2023-04-08T08:30:23.689Z,5.86
2023-04-08T08:32:52.425Z,6.12
2023-04-08T08:35:21.977Z,5.84
2023-04-08T08:37:49.856Z,6.22
2023-04-08T08:40:18.359Z,5.75
2023-04-08T08:42:52.556Z,5.64
2023-04-08T08:45:22.987Z,6.16
2023-04-08T08:47:51.895Z,6.16
2023-04-08T08:50:20.486Z,5.92
2023-04-08T08:52:52.155Z,6.05
2023-04-08T08:55:36.148Z,6.08
2023-04-08T08:58:09.574Z,5.78
2023-04-08T09:00:39.599Z,5.94
2023-04-08T09:03:23.934Z,6.09
2023-04-08T09:05:56.416Z,6.75
2023-04-08T09:08:26.488Z,6.56
2023-04-08T09:10:55.583Z,5.97
2023-04-08T09:13:25.852Z,6.26
2023-04-08T09:16:04.235Z,6.40
2023-04-08T09:18:37.144Z,6.70
2023-04-08T09:21:07.893Z,7.14
2023-04-08T09:23:42.800Z,6.77
2023-04-08T09:26:23.156Z,6.82
2023-04-08T09:29:11.419Z,6.79
2023-04-08T09:31:43.158Z,6.39
2023-04-08T09:34:12.837Z,6.59
2023-04-08T09:36:40.878Z,6.35
2023-04-08T09:39:09.177Z,6.39
2023-04-08T09:41:38.617Z,6.28
2023-04-08T09:44:08.760Z,6.75
2023-04-08T09:46:46.712Z,6.49
2023-04-08T09:49:38.606Z,6.69
2023-04-08T09:52:16.000Z,6.29
2023-04-08T09:54:54.543Z,6.42
2023-04-08T09:57:31.569Z,6.40
2023-04-08T10:00:16.403Z,6.46
2023-04-08T10:03:17.556Z,6.47
2023-04-08T10:05:47.506Z,5.99
2023-04-08T10:08:16.155Z,6.31
2023-04-08T10:10:45.544Z,6.49
2023-04-08T10:13:16.096Z,6.06
2023-04-08T10:15:47.877Z,6.21
2023-04-08T10:18:18.769Z,6.35
2023-04-08T10:20:47.888Z,6.19
2023-04-08T10:23:19.335Z,5.94
2023-04-08T10:25:48.749Z,5.67
2023-04-08T10:28:20.101Z,6.17
2023-04-08T10:30:51.116Z,5.82
2023-04-08T10:33:22.653Z,6.14
2023-04-08T10:35:55.341Z,5.86
2023-04-08T10:38:23.375Z,6.07
2023-04-08T10:40:52.687Z,6.44
2023-04-08T10:43:21.026Z,6.29
2023-04-08T10:45:51.599Z,6.28
2023-04-08T10:48:25.099Z,6.31
2023-04-08T10:50:55.170Z,6.57
2023-04-08T10:53:37.115Z,6.75
2023-04-08T10:56:05.557Z,7.11
2023-04-08T10:58:34.890Z,6.96
2023-04-08T11:01:07.884Z,6.83
2023-04-08T11:03:37.677Z,7.19
2023-04-08T11:06:08.171Z,6.59
2023-04-08T11:08:37.364Z,6.80
2023-04-08T11:11:11.383Z,6.90
2023-04-08T11:13:51.228Z,6.93
2023-04-08T11:16:21.900Z,7.22
2023-04-08T11:18:51.301Z,7.13
2023-04-08T11:21:19.266Z,6.93
2023-04-08T11:23:50.519Z,6.82
2023-04-08T11:26:20.209Z,7.31
2023-04-08T11:28:52.192Z,6.92
2023-04-08T11:31:24.113Z,6.79
2023-04-08T11:33:55.643Z,6.90
2023-04-08T11:36:24.000Z,6.82
2023-04-08T11:38:54.346Z,6.68
2023-04-08T11:41:22.691Z,6.96
2023-04-08T11:43:55.408Z,7.38
2023-04-08T11:46:24.325Z,6.85
2023-04-08T11:48:59.758Z,7.61
2023-04-08T11:51:28.336Z,7.07
2023-04-08T11:53:57.381Z,7.30
2023-04-08T11:56:26.202Z,7.27
2023-04-08T11:58:54.159Z,7.76
2023-04-08T12:01:22.656Z,7.34
2023-04-08T12:03:58.967Z,7.90
2023-04-08T12:06:28.237Z,7.54
2023-04-08T12:08:57.062Z,7.46
2023-04-08T12:11:25.302Z,7.85
2023-04-08T12:13:53.784Z,7.71
2023-04-08T12:16:22.621Z,7.21
2023-04-08T12:18:50.631Z,7.49
2023-04-08T12:21:18.563Z,7.11
2023-04-08T12:23:47.075Z,7.60
2023-04-08T12:26:15.012Z,7.48
2023-04-08T12:28:43.113Z,7.42
2023-04-08T12:31:11.568Z,7.20
2023-04-08T12:33:39.543Z,7.49
2023-04-08T12:36:07.908Z,7.35
2023-04-08T12:38:36.236Z,6.58
2023-04-08T12:41:04.233Z,6.49
2023-04-08T12:43:33.026Z,6.53
2023-04-08T12:46:02.258Z,6.85
2023-04-08T12:48:30.435Z,7.09
2023-04-08T12:50:59.023Z,7.01
2023-04-08T12:53:27.330Z,7.34
2023-04-08T12:55:57.528Z,7.11
2023-04-08T12:58:25.999Z,7.51
2023-04-08T13:00:56.338Z,7.21
2023-04-08T13:03:24.441Z,7.49
2023-04-08T13:05:52.582Z,7.09
2023-04-08T13:08:20.888Z,7.92
2023-04-08T13:10:49.010Z,7.74
2023-04-08T13:13:16.906Z,7.31
2023-04-08T13:15:45.244Z,7.62
2023-04-08T13:18:13.779Z,7.37
2023-04-08T13:20:41.744Z,7.39
2023-04-08T13:23:11.347Z,7.71
2023-04-08T13:25:39.216Z,7.71
2023-04-08T13:28:07.246Z,7.69
2023-04-08T13:30:35.988Z,7.94
2023-04-08T13:33:04.300Z,6.74
2023-04-08T13:35:32.506Z,6.93
2023-04-08T13:38:00.919Z,7.27
2023-04-08T13:40:30.300Z,7.25
2023-04-08T13:42:58.226Z,7.06
2023-04-08T13:45:26.653Z,7.24
2023-04-08T13:47:54.591Z,7.30
2023-04-08T13:50:22.638Z,7.55
2023-04-08T13:52:50.956Z,7.37
2023-04-08T13:55:19.008Z,7.19
2023-04-08T13:57:46.980Z,7.65
2023-04-08T14:00:15.731Z,7.59
2023-04-08T14:02:44.371Z,7.44
2023-04-08T14:05:12.509Z,7.64
2023-04-08T14:07:40.675Z,8.08
2023-04-08T14:10:09.885Z,7.75
2023-04-08T14:12:38.031Z,8.27
2023-04-08T14:15:06.617Z,7.93
2023-04-08T14:17:36.360Z,7.67
2023-04-08T14:20:08.351Z,7.47
2023-04-08T14:22:36.697Z,7.96
2023-04-08T14:25:04.915Z,7.79
2023-04-08T14:27:32.985Z,7.94
2023-04-08T14:30:02.869Z,8.04
2023-04-08T14:32:32.216Z,8.16
2023-04-08T14:35:00.219Z,8.57
2023-04-08T14:37:28.570Z,7.29
2023-04-08T14:39:58.319Z,7.81
2023-04-08T14:42:26.801Z,8.07
2023-04-08T14:44:55.099Z,7.73
2023-04-08T14:47:23.358Z,7.68
2023-04-08T14:49:51.424Z,7.52
2023-04-08T14:52:19.707Z,7.75
2023-04-08T14:54:48.256Z,7.57
2023-04-08T14:57:16.948Z,7.53
2023-04-08T14:59:45.283Z,7.39
2023-04-08T15:02:15.406Z,7.92
2023-04-08T15:04:43.304Z,7.39
2023-04-08T15:07:11.609Z,7.66
2023-04-08T15:09:39.682Z,7.42
2023-04-08T15:12:08.929Z,7.37
2023-04-08T15:14:37.187Z,7.78
2023-04-08T15:17:05.256Z,8.10
2023-04-08T15:19:33.264Z,7.53
2023-04-08T15:22:01.576Z,7.38
2023-04-08T15:24:29.514Z,7.29
2023-04-08T15:26:57.477Z,7.37
2023-04-08T15:29:26.380Z,7.77
2023-04-08T15:31:55.348Z,8.10
2023-04-08T15:34:23.326Z,7.43
2023-04-08T15:36:51.835Z,7.68
2023-04-08T15:39:19.756Z,7.82
2023-04-08T15:41:49.320Z,7.87
2023-04-08T15:44:19.452Z,7.26
2023-04-08T15:46:47.585Z,7.44
2023-04-08T15:49:15.742Z,7.13
2023-04-08T15:51:44.893Z,7.27
2023-04-08T15:54:12.810Z,7.19
2023-04-08T15:56:41.010Z,7.40
2023-04-08T15:59:09.358Z,7.57
2023-04-08T16:01:37.277Z,7.51
2023-04-08T16:04:06.195Z,7.45
2023-04-08T16:06:34.864Z,7.02
2023-04-08T16:09:02.770Z,6.82
2023-04-08T16:11:31.222Z,6.93
2023-04-08T16:13:59.048Z,6.69
2023-04-08T16:16:27.197Z,7.04
2023-04-08T16:18:56.778Z,6.97
2023-04-08T16:21:24.666Z,6.65
2023-04-08T16:23:54.953Z,7.07
2023-04-08T16:26:24.395Z,7.11
2023-04-08T16:28:52.791Z,6.98
2023-04-08T16:31:21.254Z,6.72
2023-04-08T16:33:51.895Z,6.66
2023-04-08T16:36:20.408Z,6.58
2023-04-08T16:38:48.268Z,6.86
2023-04-08T16:41:16.713Z,6.83
2023-04-08T16:43:44.790Z,6.73
2023-04-08T16:46:16.527Z,7.09
2023-04-08T16:48:45.264Z,7.00
2023-04-08T16:51:14.448Z,6.53
2023-04-08T16:53:42.864Z,6.88
2023-04-08T16:56:16.472Z,6.62
2023-04-08T16:58:44.544Z,6.43
2023-04-08T17:01:15.735Z,6.48
2023-04-08T17:03:44.142Z,6.45
2023-04-08T17:06:13.908Z,6.67
2023-04-08T17:08:43.615Z,6.54
2023-04-08T17:11:14.030Z,6.31
2023-04-08T17:13:43.732Z,6.05
2023-04-08T17:16:13.761Z,6.28
2023-04-08T17:18:42.487Z,6.29
2023-04-08T17:21:15.924Z,6.18
2023-04-08T17:23:43.950Z,6.65
2023-04-08T17:26:15.530Z,6.06
2023-04-08T17:28:45.368Z,6.84
2023-04-08T17:31:13.629Z,6.04
2023-04-08T17:33:41.838Z,5.95
2023-04-08T17:36:09.896Z,5.60
2023-04-08T17:38:40.216Z,5.97
2023-04-08T17:41:08.402Z,5.46
2023-04-08T17:43:36.431Z,5.50
2023-04-08T17:46:05.111Z,5.39
2023-04-08T17:48:33.205Z,5.60
2023-04-08T17:51:06.405Z,5.37
2023-04-08T17:53:34.831Z,5.49
2023-04-08T17:56:04.623Z,5.41
2023-04-08T17:58:32.619Z,5.38
2023-04-08T18:01:00.970Z,5.34
2023-04-08T18:03:29.347Z,5.35
2023-04-08T18:05:57.355Z,5.30
2023-04-08T18:08:25.673Z,5.26
2023-04-08T18:10:53.960Z,5.36
2023-04-08T18:13:22.125Z,5.42
2023-04-08T18:15:51.624Z,5.35
2023-04-08T18:18:20.457Z,5.33
2023-04-08T18:20:48.535Z,5.36
2023-04-08T18:23:17.347Z,5.28
2023-04-08T18:25:50.386Z,5.32
2023-04-08T18:28:18.403Z,5.29
2023-04-08T18:30:51.482Z,5.17
2023-04-08T18:33:19.564Z,5.17
2023-04-08T18:35:48.028Z,5.25
2023-04-08T18:38:16.418Z,5.21
2023-04-08T18:40:46.183Z,5.27
2023-04-08T18:43:15.007Z,5.21
2023-04-08T18:45:43.166Z,5.14
2023-04-08T18:48:12.602Z,5.13
2023-04-08T18:50:43.347Z,5.08
2023-04-08T18:53:12.646Z,5.22
2023-04-08T18:55:42.335Z,5.18
2023-04-08T18:58:11.193Z,5.28
2023-04-08T19:00:43.881Z,5.27
2023-04-08T19:03:12.442Z,5.13
2023-04-08T19:05:41.570Z,5.03
2023-04-08T19:08:09.464Z,5.16
2023-04-08T19:10:37.733Z,5.11
2023-04-08T19:13:05.652Z,5.01
2023-04-08T19:15:33.575Z,4.96
2023-04-08T19:18:01.911Z,4.96
2023-04-08T19:20:30.204Z,4.89
2023-04-08T19:22:58.050Z,4.75
2023-04-08T19:25:26.231Z,4.73
2023-04-08T19:27:54.172Z,4.68
2023-04-08T19:30:22.255Z,4.59
2023-04-08T19:32:51.674Z,4.64
2023-04-08T19:35:19.649Z,4.58
2023-04-08T19:37:47.572Z,4.54
2023-04-08T19:40:16.097Z,4.51
2023-04-08T19:42:44.744Z,4.51
2023-04-08T19:45:12.821Z,4.41
2023-04-08T19:47:43.435Z,4.54
2023-04-08T19:50:12.697Z,4.47
2023-04-08T19:52:41.218Z,4.33
2023-04-08T19:55:10.449Z,4.36
2023-04-08T19:57:38.367Z,4.26
2023-04-08T20:00:08.398Z,4.30
2023-04-08T20:02:36.399Z,4.21
2023-04-08T20:05:05.134Z,3.96
2023-04-08T20:07:32.978Z,3.84
2023-04-08T20:10:01.064Z,3.81
2023-04-08T20:12:30.436Z,3.87
2023-04-08T20:14:58.365Z,3.74
2023-04-08T20:17:26.689Z,3.75
2023-04-08T20:19:55.221Z,3.82
2023-04-08T20:22:23.131Z,3.76
2023-04-08T20:24:51.204Z,3.57
2023-04-08T20:27:19.442Z,3.65
2023-04-08T20:29:47.674Z,3.52
2023-04-08T20:32:15.753Z,3.61
2023-04-08T20:34:43.995Z,3.71
2023-04-08T20:37:11.984Z,3.63
2023-04-08T20:39:39.855Z,3.66
2023-04-08T20:42:09.621Z,3.62
2023-04-08T20:44:37.653Z,3.59
2023-04-08T20:47:05.729Z,3.80
2023-04-08T20:49:35.393Z,4.13
2023-04-08T20:52:03.460Z,4.11
2023-04-08T20:54:31.904Z,3.94
2023-04-08T20:57:00.263Z,3.59
2023-04-08T20:59:28.503Z,3.45
2023-04-08T21:01:56.603Z,3.51
2023-04-08T21:04:24.984Z,3.55
2023-04-08T21:06:53.013Z,3.51
2023-04-08T21:09:21.206Z,3.66
2023-04-08T21:11:49.431Z,3.61
2023-04-08T21:14:17.347Z,3.48
2023-04-08T21:16:45.789Z,3.49
2023-04-08T21:19:14.174Z,3.48
2023-04-08T21:21:42.097Z,3.45
2023-04-08T21:24:10.935Z,3.52
2023-04-08T21:26:39.510Z,3.52
2023-04-08T21:29:07.509Z,3.46
2023-04-08T21:31:35.724Z,3.50
2023-04-08T21:34:06.090Z,3.47
2023-04-08T21:36:34.097Z,3.53
2023-04-08T21:39:02.612Z,3.36
2023-04-08T21:41:30.972Z,3.34
2023-04-08T21:43:59.554Z,3.38
2023-04-08T21:46:27.638Z,3.32
2023-04-08T21:48:56.287Z,3.21
2023-04-08T21:51:24.270Z,3.14
2023-04-08T21:53:52.661Z,3.25
2023-04-08T21:56:22.408Z,3.48
2023-04-08T21:58:50.811Z,3.30
2023-04-08T22:01:19.079Z,3.25
2023-04-08T22:03:47.636Z,3.15
2023-04-08T22:06:29.136Z,3.12
2023-04-08T22:09:00.194Z,3.16
2023-04-08T22:11:28.178Z,3.13
2023-04-08T22:13:56.062Z,3.34
2023-04-08T22:16:24.508Z,3.30
2023-04-08T22:18:52.648Z,3.54
2023-04-08T22:21:21.187Z,3.47
2023-04-08T22:23:49.487Z,3.36
2023-04-08T22:26:17.424Z,3.53
2023-04-08T22:28:45.387Z,3.21
2023-04-08T22:31:13.760Z,3.20
2023-04-08T22:33:41.781Z,3.05
2023-04-08T22:36:09.914Z,3.01
2023-04-08T22:38:38.345Z,3.08
2023-04-08T22:41:06.269Z,3.13
2023-04-08T22:43:34.187Z,2.97
2023-04-08T22:46:02.457Z,3.14
2023-04-08T22:48:30.481Z,3.03
2023-04-08T22:50:58.463Z,3.06
2023-04-08T22:53:27.736Z,3.08
2023-04-08T22:55:55.611Z,3.00
2023-04-08T22:58:23.665Z,3.21
2023-04-08T23:00:51.887Z,3.06
2023-04-08T23:03:19.846Z,3.11
2023-04-08T23:05:47.829Z,3.08
2023-04-08T23:08:16.387Z,2.93
2023-04-08T23:10:44.359Z,2.89
2023-04-08T23:13:14.159Z,2.84
2023-04-08T23:15:42.425Z,2.93
2023-04-08T23:18:10.426Z,2.86
2023-04-08T23:20:38.378Z,2.94
2023-04-08T23:23:06.719Z,2.84
2023-04-08T23:25:37.673Z,2.70
2023-04-08T23:28:05.821Z,2.71
2023-04-08T23:30:34.093Z,2.82
2023-04-08T23:33:02.052Z,2.89
2023-04-08T23:35:29.893Z,3.13
2023-04-08T23:37:58.277Z,3.00
2023-04-08T23:40:26.364Z,3.04
2023-04-08T23:42:54.338Z,3.06
2023-04-08T23:45:22.641Z,3.03
2023-04-08T23:47:50.671Z,3.21
2023-04-08T23:50:20.406Z,3.22
2023-04-08T23:52:48.866Z,3.66
2023-04-08T23:55:16.865Z,3.50
2023-04-08T23:57:44.974Z,3.52
